Stations météo

réclame
Mon MeteoGroup
Serralta di S. Vito, Italie (16364): Température de l'air & dewpoint: 12.08.2018 02:00:00 - 18.08.2018 02:00:00 (CEST)Serralta di S. Vito, Italie (16364): Vitesse du vent: 12.08.2018 02:00:00 - 18.08.2018 02:00:00 (CEST)Serralta di S. Vito, Italie (16364): Direction du vent: 12.08.2018 02:00:00 - 18.08.2018 02:00:00 (CEST)Serralta di S. Vito, Italie (16364): Quantités de précipitations: 12.08.2018 02:00:00 - 18.08.2018 02:00:00 (CEST)
Date & Time tt [°C] td [°C] ff [km/h] ff [knt] dd rr [mm]
18.08.2018 02:00:00 15,9 13,5 5 3 WSW 0,0
18.08.2018 01:00:00 15,9 13,5 5 3 WSW -
18.08.2018 00:00:00 16,9 14,5 8 4 WSW -
17.08.2018 23:00:00 17,2 14,8 9 5 W -
17.08.2018 22:00:00 17,4 15,0 13 7 SW -
17.08.2018 21:00:00 17,4 15,0 13 7 SSW -
17.08.2018 20:00:00 17,8 15,2 15 8 W 0,0
17.08.2018 19:00:00 19,7 16,5 13 7 W -
17.08.2018 18:00:00 21,6 17,9 8 4 NE -
17.08.2018 17:00:00 21,8 17,9 8 4 WSW -
17.08.2018 16:00:00 22,1 18,8 13 7 SW -
17.08.2018 15:00:00 20,6 17,3 15 8 W -
17.08.2018 14:00:00 21,6 18,5 9 5 WSW 0,0
17.08.2018 13:00:00 20,3 17,1 8 4 W -
17.08.2018 12:00:00 21,8 18,1 8 4 NW -
17.08.2018 11:00:00 21,0 18,1 5 3 WSW -
17.08.2018 10:00:00 19,4 17,3 8 4 SW -
17.08.2018 09:00:00 17,7 15,3 5 3 SW -
17.08.2018 08:00:00 16,2 13,8 8 4 W -
17.08.2018 07:00:00 14,5 12,5 8 4 SW -
17.08.2018 06:00:00 13,9 11,6 5 3 SW -
17.08.2018 05:00:00 14,2 11,9 8 4 SW -
17.08.2018 04:00:00 15,3 12,9 5 3 WSW -
17.08.2018 03:00:00 15,0 12,7 8 4 SSE -
17.08.2018 02:00:00 14,6 12,3 5 3 SE -
17.08.2018 01:00:00 15,3 12,9 8 4 W -
17.08.2018 00:00:00 15,4 13,0 5 3 WSW -
16.08.2018 23:00:00 15,5 13,1 8 4 SW -
16.08.2018 22:00:00 16,4 14,0 9 5 W -
16.08.2018 21:00:00 16,4 14,0 5 3 W -
16.08.2018 20:00:00 17,0 14,6 9 5 W -
16.08.2018 19:00:00 17,7 15,1 16 9 WSW -
16.08.2018 18:00:00 18,1 15,7 15 8 WSW -
16.08.2018 17:00:00 18,2 15,4 15 8 SW -
16.08.2018 16:00:00 21,7 17,6 13 7 SW -
16.08.2018 15:00:00 21,7 18,0 9 5 WNW -
16.08.2018 14:00:00 21,4 17,7 11 6 W 0,0
16.08.2018 13:00:00 20,8 17,5 13 7 W -
16.08.2018 12:00:00 20,0 16,6 15 8 WSW -
16.08.2018 11:00:00 19,6 16,8 11 6 NNW -
16.08.2018 10:00:00 18,3 15,8 11 6 NW -
16.08.2018 09:00:00 16,7 14,3 11 6 SW -
16.08.2018 08:00:00 15,8 13,4 2 1 SW 0,0
16.08.2018 07:00:00 14,8 12,5 5 3 S -
16.08.2018 06:00:00 14,8 12,5 9 5 WSW -
16.08.2018 05:00:00 15,0 12,7 13 7 WSW -
16.08.2018 04:00:00 15,4 13,0 11 6 W -
16.08.2018 03:00:00 15,7 13,3 8 4 WSW -
16.08.2018 02:00:00 16,2 13,8 11 6 WSW 0,0
16.08.2018 01:00:00 16,3 13,9 9 5 WSW -
16.08.2018 00:00:00 16,2 13,8 9 5 W -
15.08.2018 23:00:00 16,7 14,3 13 7 WSW -
15.08.2018 22:00:00 16,6 14,2 13 7 WSW -
15.08.2018 21:00:00 16,0 13,6 16 9 WSW -
15.08.2018 20:00:00 16,4 13,8 16 9 WNW -
15.08.2018 19:00:00 17,8 14,8 11 6 WSW -
15.08.2018 18:00:00 20,4 16,8 13 7 W -
15.08.2018 17:00:00 20,2 16,2 15 8 WNW -
15.08.2018 16:00:00 21,0 17,3 13 7 W -
15.08.2018 15:00:00 20,7 17,3 11 6 WSW -
15.08.2018 14:00:00 19,8 16,2 21 11 W -
15.08.2018 13:00:00 19,5 16,8 16 9 W -
15.08.2018 12:00:00 18,2 15,8 15 8 WSW -
15.08.2018 11:00:00 17,2 14,8 13 7 W -
15.08.2018 10:00:00 14,5 12,2 11 6 SW -
15.08.2018 09:00:00 13,9 11,7 15 8 W -
15.08.2018 08:00:00 14,0 11,8 22 12 WSW -
15.08.2018 07:00:00 14,5 12,2 28 15 W -
15.08.2018 06:00:00 16,9 14,5 15 8 SW -
15.08.2018 05:00:00 15,7 13,6 13 7 W -
15.08.2018 04:00:00 14,8 12,5 11 6 W -
15.08.2018 03:00:00 17,1 14,7 9 5 W -
15.08.2018 02:00:00 18,1 15,7 15 8 W 0,0
15.08.2018 01:00:00 18,4 16,5 11 6 W -
15.08.2018 00:00:00 18,2 15,8 15 8 WSW -
14.08.2018 23:00:00 18,6 16,1 15 8 WSW -
14.08.2018 22:00:00 18,9 16,4 18 10 W -
14.08.2018 21:00:00 18,6 16,1 15 8 WSW -
14.08.2018 20:00:00 19,1 16,6 18 10 W 0,0
14.08.2018 19:00:00 19,9 17,0 18 10 NW -
14.08.2018 18:00:00 21,6 18,1 18 10 WNW -
14.08.2018 17:00:00 22,6 18,7 16 9 W -
14.08.2018 16:00:00 23,6 19,3 15 8 NW -
14.08.2018 15:00:00 24,4 20,3 15 8 W -
14.08.2018 14:00:00 24,2 20,7 16 9 WNW 0,0
14.08.2018 13:00:00 23,5 19,2 15 8 W -
14.08.2018 12:00:00 23,2 19,9 13 7 WSW -
14.08.2018 11:00:00 22,0 18,7 15 8 WNW -
14.08.2018 10:00:00 21,0 18,5 11 6 WNW -
14.08.2018 09:00:00 19,8 17,3 16 9 W -
14.08.2018 08:00:00 18,3 15,8 11 6 WNW 0,0
14.08.2018 07:00:00 17,2 14,8 13 7 W -
14.08.2018 06:00:00 16,7 14,3 15 8 WSW -
14.08.2018 05:00:00 18,4 15,9 13 7 WSW -
14.08.2018 04:00:00 18,5 16,0 15 8 WSW -
14.08.2018 03:00:00 18,6 16,1 15 8 WSW -
14.08.2018 02:00:00 18,7 16,2 15 8 WSW 0,0
14.08.2018 01:00:00 18,5 16,0 15 8 WSW -
14.08.2018 00:00:00 17,9 15,6 16 9 WSW -
13.08.2018 23:00:00 17,7 14,5 15 8 W -
13.08.2018 22:00:00 17,4 14,0 13 7 NW -
13.08.2018 21:00:00 17,6 14,0 9 5 W -
13.08.2018 20:00:00 18,4 14,6 9 5 W 0,0
13.08.2018 19:00:00 20,6 16,4 9 5 W -
13.08.2018 18:00:00 22,3 16,9 11 6 SW -
13.08.2018 17:00:00 23,1 17,3 15 8 W -
13.08.2018 16:00:00 24,1 19,5 9 5 W -
13.08.2018 15:00:00 24,5 18,1 13 7 W -
13.08.2018 14:00:00 24,0 19,4 11 6 WSW 0,0
13.08.2018 13:00:00 24,2 19,0 9 5 WSW -
13.08.2018 12:00:00 23,6 18,6 8 4 NW -
13.08.2018 11:00:00 23,5 17,2 8 4 SW -
13.08.2018 10:00:00 21,8 15,8 4 2 NW -
13.08.2018 09:00:00 19,9 15,7 4 2 NW -
13.08.2018 08:00:00 18,2 14,0 8 4 W 0,0
13.08.2018 07:00:00 16,7 13,0 5 3 NW -
13.08.2018 06:00:00 15,9 12,9 8 4 W -
13.08.2018 05:00:00 15,4 13,0 9 5 NW -
13.08.2018 04:00:00 16,0 13,6 9 5 NW -
13.08.2018 03:00:00 17,3 14,9 11 6 W -
13.08.2018 02:00:00 18,1 15,7 13 7 W 0,0
13.08.2018 01:00:00 18,8 16,3 13 7 W -
13.08.2018 00:00:00 18,7 16,2 13 7 WSW -
12.08.2018 23:00:00 19,1 16,6 13 7 SW -
12.08.2018 22:00:00 19,5 17,0 13 7 W -
12.08.2018 21:00:00 19,7 17,2 11 6 SSW -
12.08.2018 20:00:00 20,2 17,5 9 5 W 0,0
12.08.2018 19:00:00 21,7 18,8 9 5 WSW -
12.08.2018 18:00:00 22,4 19,3 9 5 W -
12.08.2018 17:00:00 24,0 20,9 5 3 NW -
12.08.2018 16:00:00 23,1 18,4 5 3 WNW -
12.08.2018 15:00:00 24,9 21,8 11 6 WSW -
12.08.2018 14:00:00 23,5 20,2 13 7 WSW 0,0
12.08.2018 13:00:00 24,0 21,1 11 6 W -
12.08.2018 12:00:00 23,8 21,1 11 6 W -
12.08.2018 11:00:00 22,2 20,4 11 6 WSW -
12.08.2018 10:00:00 20,6 19,0 5 3 SSW -
12.08.2018 09:00:00 20,0 18,4 5 3 SW -
12.08.2018 08:00:00 19,5 17,9 9 5 W 0,0
12.08.2018 07:00:00 19,0 17,3 11 6 W -
12.08.2018 06:00:00 18,8 17,1 11 6 W -
12.08.2018 05:00:00 18,8 17,1 13 7 WNW -
12.08.2018 04:00:00 18,6 16,9 13 7 W -
12.08.2018 03:00:00 18,8 17,1 15 8 W -
12.08.2018 02:00:00 18,7 17,0 13 7 W 0,0

tt = Température de l'air
td = dewpoint
ff = Vitesse du vent
dd = Direction du vent
rr = Quantités de précipitations

stations d'obs. à proximité